Time;durP1;ratioP1;P1;durP2;ratioP2;P2;SDS_P1;SDS_P2;PMS_P1;PMS_P2;Temp;Humidity;BMP_temperature;BMP_pressure;BME280_temperature;BME280_humidity;BME280_pressure;Samples;Min_cycle;Max_cycle;Signal;HPM_P1;HPM_P2
2023/11/30 00:01:32;;;;;;;4.40;2.10;;;;;;;;;;4935161;29;20047;-57
2023/11/30 00:03:58;;;;;;;4.00;2.45;;;;;;;;;;4935183;29;20031;-57
2023/11/30 00:06:24;;;;;;;5.88;2.88;;;;;;;;;;4934232;29;20051;-55
2023/11/30 00:08:50;;;;;;;4.57;2.92;;;;;;;;;;4934728;29;20032;-56
2023/11/30 00:11:17;;;;;;;5.43;2.97;;;;;;;;;;4934686;29;20507;-56
2023/11/30 00:13:43;;;;;;;5.47;3.70;;;;;;;;;;4935046;29;20044;-56
2023/11/30 00:16:10;;;;;;;11.18;6.45;;;;;;;;;;4934595;29;20035;-56
2023/11/30 00:18:36;;;;;;;14.70;7.45;;;;;;;;;;4934197;29;20039;-54
2023/11/30 00:21:02;;;;;;;15.27;8.10;;;;;;;;;;4934525;29;20051;-54
2023/11/30 00:23:28;;;;;;;14.25;8.00;;;;;;;;;;4934923;29;20078;-55
2023/11/30 00:25:55;;;;;;;18.00;8.30;;;;;;;;;;4933829;29;20403;-55
2023/11/30 00:28:21;;;;;;;15.95;8.52;;;;;;;;;;4933859;29;20044;-55
2023/11/30 00:30:47;;;;;;;14.30;7.90;;;;;;;;;;4933125;29;20051;-56
2023/11/30 00:33:13;;;;;;;15.27;8.48;;;;;;;;;;4932875;29;20043;-56
2023/11/30 00:35:39;;;;;;;15.52;8.73;;;;;;;;;;4936292;29;20106;-56
2023/11/30 00:38:05;;;;;;;18.13;8.70;;;;;;;;;;4931856;29;20044;-56
2023/11/30 00:40:32;;;;;;;15.18;8.27;;;;;;;;;;4932815;29;20055;-54
2023/11/30 00:42:58;;;;;;;13.00;6.68;;;;;;;;;;4934838;29;20032;-56
2023/11/30 00:45:24;;;;;;;9.20;5.22;;;;;;;;;;4933647;29;20048;-56
2023/11/30 00:47:50;;;;;;;8.32;4.38;;;;;;;;;;4932413;29;20047;-57
2023/11/30 00:50:16;;;;;;;6.47;4.15;;;;;;;;;;4933100;29;20067;-55
2023/11/30 00:52:42;;;;;;;9.27;4.07;;;;;;;;;;4934724;29;20435;-54
2023/11/30 00:55:08;;;;;;;6.85;4.10;;;;;;;;;;4933824;29;20052;-55
2023/11/30 00:57:34;;;;;;;6.63;3.90;;;;;;;;;;4933068;29;20668;-56
2023/11/30 01:00:00;;;;;;;8.75;4.00;;;;;;;;;;4934175;29;20047;-54
2023/11/30 01:02:26;;;;;;;5.13;3.42;;;;;;;;;;4933552;29;20422;-56
2023/11/30 01:04:53;;;;;;;4.75;3.05;;;;;;;;;;4932548;29;20042;-56
2023/11/30 01:07:19;;;;;;;7.35;3.70;;;;;;;;;;4932383;29;20058;-55
2023/11/30 01:09:45;;;;;;;6.38;3.05;;;;;;;;;;4932111;29;20047;-54
2023/11/30 01:12:11;;;;;;;5.28;3.00;;;;;;;;;;4933106;29;20058;-56
2023/11/30 01:14:40;;;;;;;8.10;3.35;;;;;;;;;;4934146;29;20032;-54
2023/11/30 01:17:07;;;;;;;6.80;3.22;;;;;;;;;;4932294;29;20051;-54
2023/11/30 01:19:33;;;;;;;9.23;3.53;;;;;;;;;;4933687;29;20391;-54
2023/11/30 01:21:59;;;;;;;5.93;3.38;;;;;;;;;;4933528;29;20059;-55
2023/11/30 01:24:25;;;;;;;6.75;3.60;;;;;;;;;;4931977;29;20058;-56
2023/11/30 01:26:52;;;;;;;4.45;3.00;;;;;;;;;;4931581;29;20031;-55
2023/11/30 01:29:18;;;;;;;6.35;3.50;;;;;;;;;;4933593;29;20043;-56
2023/11/30 01:31:44;;;;;;;8.55;3.63;;;;;;;;;;4932181;29;20042;-56
2023/11/30 01:34:10;;;;;;;5.13;3.17;;;;;;;;;;4932375;29;20067;-55
2023/11/30 01:36:36;;;;;;;6.28;3.42;;;;;;;;;;4932121;29;20048;-55
2023/11/30 01:39:02;;;;;;;5.50;3.28;;;;;;;;;;4932321;29;20047;-56
2023/11/30 01:41:28;;;;;;;6.38;3.15;;;;;;;;;;4933058;29;20054;-56
2023/11/30 01:43:54;;;;;;;5.32;3.58;;;;;;;;;;4931799;29;20051;-54
2023/11/30 01:46:21;;;;;;;4.80;3.05;;;;;;;;;;4933084;29;20047;-55
2023/11/30 01:48:47;;;;;;;4.75;2.75;;;;;;;;;;4931367;29;20042;-55
2023/11/30 01:51:15;;;;;;;5.70;2.80;;;;;;;;;;4932089;29;20059;-55
2023/11/30 01:53:42;;;;;;;4.30;2.67;;;;;;;;;;4932171;29;20027;-56
2023/11/30 01:56:10;;;;;;;4.20;2.42;;;;;;;;;;4932131;29;20062;-55
2023/11/30 01:58:37;;;;;;;4.18;2.78;;;;;;;;;;4929929;29;20035;-54
2023/11/30 02:01:03;;;;;;;3.40;2.65;;;;;;;;;;4930855;29;20047;-55
2023/11/30 02:03:30;;;;;;;4.72;2.58;;;;;;;;;;4932754;29;20047;-57
2023/11/30 02:05:56;;;;;;;4.70;2.10;;;;;;;;;;4932682;29;20142;-53
2023/11/30 02:08:22;;;;;;;3.08;2.10;;;;;;;;;;4932082;29;20054;-56
2023/11/30 02:10:48;;;;;;;3.10;2.13;;;;;;;;;;4931015;29;20055;-55
2023/11/30 02:13:14;;;;;;;4.85;2.10;;;;;;;;;;4931699;29;20282;-55
2023/11/30 02:15:40;;;;;;;3.10;1.98;;;;;;;;;;4931314;29;20076;-55
2023/11/30 02:18:08;;;;;;;3.80;2.20;;;;;;;;;;4931757;29;20043;-57
2023/11/30 02:20:34;;;;;;;3.60;2.08;;;;;;;;;;4931898;29;20066;-55
2023/11/30 02:23:00;;;;;;;2.55;1.85;;;;;;;;;;4933027;29;20035;-56
2023/11/30 02:25:26;;;;;;;3.28;2.00;;;;;;;;;;4930786;29;20040;-55
2023/11/30 02:27:52;;;;;;;3.03;1.80;;;;;;;;;;4930413;29;20051;-56
2023/11/30 02:30:18;;;;;;;4.47;1.80;;;;;;;;;;4915194;29;20511;-55
2023/11/30 02:32:44;;;;;;;2.13;1.63;;;;;;;;;;4932953;29;20042;-56
2023/11/30 02:35:11;;;;;;;2.40;1.50;;;;;;;;;;4931661;29;20050;-56
2023/11/30 02:37:37;;;;;;;3.17;2.15;;;;;;;;;;4931842;29;20039;-56
2023/11/30 02:40:04;;;;;;;2.65;1.90;;;;;;;;;;4932217;29;20048;-54
2023/11/30 02:42:30;;;;;;;2.80;2.13;;;;;;;;;;4931035;29;20041;-57
2023/11/30 02:44:56;;;;;;;2.08;1.70;;;;;;;;;;4930675;29;20047;-57
2023/11/30 02:47:22;;;;;;;2.95;1.63;;;;;;;;;;4931084;29;20055;-55
2023/11/30 02:49:48;;;;;;;2.63;2.13;;;;;;;;;;4931212;29;20048;-57
2023/11/30 02:52:14;;;;;;;2.38;1.73;;;;;;;;;;4930714;29;20059;-57
2023/11/30 02:54:40;;;;;;;2.72;1.80;;;;;;;;;;4932704;29;20046;-56
2023/11/30 02:57:06;;;;;;;2.88;2.35;;;;;;;;;;4931262;29;20039;-56
2023/11/30 02:59:33;;;;;;;2.83;2.10;;;;;;;;;;4932056;29;20055;-55
2023/11/30 03:01:59;;;;;;;3.03;2.40;;;;;;;;;;4931533;29;20066;-54
2023/11/30 03:04:25;;;;;;;2.95;2.40;;;;;;;;;;4931923;29;20395;-54
2023/11/30 03:06:51;;;;;;;4.00;2.30;;;;;;;;;;4931796;29;20043;-56
2023/11/30 03:09:18;;;;;;;2.38;2.00;;;;;;;;;;4930391;29;20054;-55
2023/11/30 03:11:44;;;;;;;2.90;1.80;;;;;;;;;;4931579;29;20047;-56
2023/11/30 03:14:10;;;;;;;2.92;2.30;;;;;;;;;;4932324;29;20048;-56
2023/11/30 03:16:36;;;;;;;4.22;2.47;;;;;;;;;;4931515;29;20121;-56
2023/11/30 03:19:02;;;;;;;2.67;2.10;;;;;;;;;;4931417;29;20036;-55
2023/11/30 03:21:29;;;;;;;3.03;1.95;;;;;;;;;;4932328;29;20032;-56
2023/11/30 03:23:56;;;;;;;3.00;2.15;;;;;;;;;;4930066;29;20054;-56
2023/11/30 03:26:22;;;;;;;4.13;2.45;;;;;;;;;;4931357;29;20455;-55
2023/11/30 03:28:50;;;;;;;3.63;2.35;;;;;;;;;;4931749;29;20043;-59
2023/11/30 03:31:16;;;;;;;8.38;3.80;;;;;;;;;;4931197;29;20048;-58
2023/11/30 03:33:42;;;;;;;7.45;4.15;;;;;;;;;;4931861;29;20040;-57
2023/11/30 03:36:08;;;;;;;10.18;5.03;;;;;;;;;;4931642;29;20047;-57
2023/11/30 03:38:34;;;;;;;12.88;5.53;;;;;;;;;;4931597;29;20051;-58
2023/11/30 03:41:00;;;;;;;13.82;6.50;;;;;;;;;;4931850;29;20411;-57
2023/11/30 03:43:27;;;;;;;14.18;5.90;;;;;;;;;;4931312;29;20492;-56
2023/11/30 03:45:53;;;;;;;14.57;5.43;;;;;;;;;;4931404;29;20391;-57
2023/11/30 03:48:19;;;;;;;11.70;5.68;;;;;;;;;;4931144;29;20056;-54
2023/11/30 03:50:45;;;;;;;9.38;5.10;;;;;;;;;;4931800;29;20043;-56
2023/11/30 03:53:11;;;;;;;9.00;4.65;;;;;;;;;;4931216;29;20368;-55
2023/11/30 03:55:37;;;;;;;8.88;4.90;;;;;;;;;;4930178;29;20055;-56
2023/11/30 03:58:03;;;;;;;11.38;5.50;;;;;;;;;;4930794;29;20047;-57
2023/11/30 04:00:29;;;;;;;8.68;4.72;;;;;;;;;;4930585;29;20518;-56
2023/11/30 04:02:55;;;;;;;8.13;5.13;;;;;;;;;;4934823;29;20128;-56
2023/11/30 04:05:21;;;;;;;10.35;5.72;;;;;;;;;;4933559;29;20039;-55
2023/11/30 04:07:48;;;;;;;12.20;5.07;;;;;;;;;;4934365;29;20047;-56
2023/11/30 04:10:14;;;;;;;9.77;5.20;;;;;;;;;;4934964;29;20411;-56
2023/11/30 04:12:40;;;;;;;10.57;5.07;;;;;;;;;;4933918;29;20040;-55
2023/11/30 04:15:07;;;;;;;10.38;4.35;;;;;;;;;;4934950;29;20052;-56
2023/11/30 04:17:34;;;;;;;9.20;5.82;;;;;;;;;;4933931;29;20031;-55
2023/11/30 04:20:01;;;;;;;10.68;5.53;;;;;;;;;;4934102;29;20048;-56
2023/11/30 04:22:27;;;;;;;10.60;5.60;;;;;;;;;;4934507;29;20062;-55
2023/11/30 04:24:54;;;;;;;11.48;6.10;;;;;;;;;;4935184;29;20043;-55
2023/11/30 04:27:20;;;;;;;9.13;5.35;;;;;;;;;;4932189;29;20104;-55
2023/11/30 04:29:46;;;;;;;11.55;6.20;;;;;;;;;;4916884;29;20048;-55
2023/11/30 04:32:12;;;;;;;13.25;6.75;;;;;;;;;;4933699;29;20149;-56
2023/11/30 04:34:38;;;;;;;14.70;6.80;;;;;;;;;;4934386;29;20414;-55
2023/11/30 04:37:04;;;;;;;11.77;6.85;;;;;;;;;;4933933;29;20039;-56
2023/11/30 04:39:30;;;;;;;11.50;6.20;;;;;;;;;;4934417;29;20051;-56
2023/11/30 04:41:56;;;;;;;12.60;6.72;;;;;;;;;;4933216;29;20415;-55
2023/11/30 04:44:25;;;;;;;18.95;8.35;;;;;;;;;;4948827;29;20090;-56
2023/11/30 04:46:51;;;;;;;18.23;9.05;;;;;;;;;;4932348;29;20028;-56
2023/11/30 04:49:17;;;;;;;25.42;10.27;;;;;;;;;;4933679;29;20063;-57
2023/11/30 04:51:43;;;;;;;27.25;11.23;;;;;;;;;;4933436;29;20404;-56
2023/11/30 04:54:09;;;;;;;24.40;11.27;;;;;;;;;;4932146;29;20479;-55
2023/11/30 04:56:35;;;;;;;25.00;10.98;;;;;;;;;;4932527;29;20101;-55
2023/11/30 04:59:01;;;;;;;21.55;9.63;;;;;;;;;;4934097;29;20031;-56
2023/11/30 05:01:28;;;;;;;22.25;10.93;;;;;;;;;;4932739;29;20487;-57
2023/11/30 05:03:56;;;;;;;23.83;11.05;;;;;;;;;;4933570;29;20071;-56
2023/11/30 05:06:22;;;;;;;24.05;10.43;;;;;;;;;;4934151;29;20516;-56
2023/11/30 05:08:48;;;;;;;26.38;10.70;;;;;;;;;;4932953;29;20044;-56
2023/11/30 05:11:15;;;;;;;19.88;10.20;;;;;;;;;;4932074;29;20040;-55
2023/11/30 05:13:41;;;;;;;23.30;10.73;;;;;;;;;;4933787;29;20070;-55
2023/11/30 05:16:07;;;;;;;23.80;11.43;;;;;;;;;;4933475;29;20036;-54
2023/11/30 05:18:34;;;;;;;30.23;11.82;;;;;;;;;;4933496;29;20039;-54
2023/11/30 05:21:00;;;;;;;28.10;12.73;;;;;;;;;;4933030;29;20050;-57
2023/11/30 05:23:26;;;;;;;25.83;11.13;;;;;;;;;;4933684;29;20054;-56
2023/11/30 05:25:52;;;;;;;26.35;11.98;;;;;;;;;;4933317;29;20058;-54
2023/11/30 05:28:18;;;;;;;24.88;11.40;;;;;;;;;;4932381;29;20052;-55
2023/11/30 05:30:44;;;;;;;24.73;12.10;;;;;;;;;;4932804;29;20680;-54
2023/11/30 05:33:10;;;;;;;30.05;12.90;;;;;;;;;;4933288;29;20058;-54
2023/11/30 05:35:37;;;;;;;26.95;12.80;;;;;;;;;;4932395;29;20504;-55
2023/11/30 05:38:03;;;;;;;25.50;12.15;;;;;;;;;;4932826;29;20039;-56
2023/11/30 05:40:29;;;;;;;27.83;12.35;;;;;;;;;;4932533;29;20055;-55
2023/11/30 05:42:56;;;;;;;27.38;12.88;;;;;;;;;;4932803;29;20051;-55
2023/11/30 05:45:22;;;;;;;25.02;10.70;;;;;;;;;;4932956;29;20047;-59
2023/11/30 05:47:48;;;;;;;24.00;11.55;;;;;;;;;;4932520;29;20052;-56
2023/11/30 05:50:14;;;;;;;26.42;11.65;;;;;;;;;;4932774;29;20063;-55
2023/11/30 05:52:41;;;;;;;23.70;11.70;;;;;;;;;;4933250;29;20427;-55
2023/11/30 05:55:07;;;;;;;22.50;11.38;;;;;;;;;;4932800;29;20070;-54
2023/11/30 05:57:33;;;;;;;24.60;11.38;;;;;;;;;;4931609;29;20051;-56
2023/11/30 05:59:59;;;;;;;26.45;12.00;;;;;;;;;;4933429;29;20027;-56
2023/11/30 06:02:26;;;;;;;21.77;9.90;;;;;;;;;;4932293;29;20534;-56
2023/11/30 06:04:54;;;;;;;21.65;10.30;;;;;;;;;;4930861;29;20036;-55
2023/11/30 06:07:20;;;;;;;23.17;10.95;;;;;;;;;;4931177;29;20047;-55
2023/11/30 06:09:47;;;;;;;22.35;9.50;;;;;;;;;;4932413;29;20059;-55
2023/11/30 06:12:13;;;;;;;23.27;10.48;;;;;;;;;;4931518;29;20044;-54
2023/11/30 06:14:39;;;;;;;19.55;9.68;;;;;;;;;;4932750;29;20051;-55
2023/11/30 06:17:05;;;;;;;20.00;10.18;;;;;;;;;;4931729;29;20035;-55
2023/11/30 06:19:32;;;;;;;19.88;9.90;;;;;;;;;;4932103;29;20039;-54
2023/11/30 06:22:00;;;;;;;17.27;9.45;;;;;;;;;;4932762;29;20032;-55
2023/11/30 06:24:26;;;;;;;19.63;9.32;;;;;;;;;;4931924;29;20028;-54
2023/11/30 06:26:53;;;;;;;21.63;10.05;;;;;;;;;;4930950;29;20047;-54
2023/11/30 06:29:19;;;;;;;21.05;10.23;;;;;;;;;;4932605;29;20036;-54
2023/11/30 06:31:45;;;;;;;19.23;9.20;;;;;;;;;;4932435;29;20046;-56
2023/11/30 06:34:11;;;;;;;17.58;7.70;;;;;;;;;;4932094;29;20042;-56
2023/11/30 06:36:38;;;;;;;17.70;7.95;;;;;;;;;;4931128;29;20047;-54
2023/11/30 06:39:04;;;;;;;15.60;8.05;;;;;;;;;;4932232;29;20028;-55
2023/11/30 06:41:31;;;;;;;16.27;7.22;;;;;;;;;;4930965;29;20043;-55
2023/11/30 06:43:57;;;;;;;17.00;8.30;;;;;;;;;;4932409;29;20032;-56
2023/11/30 06:46:23;;;;;;;14.50;7.32;;;;;;;;;;4931684;29;20054;-55
2023/11/30 06:48:50;;;;;;;13.32;6.88;;;;;;;;;;4931143;29;20052;-55
2023/11/30 06:51:17;;;;;;;14.73;7.20;;;;;;;;;;4932271;29;20139;-53
2023/11/30 06:53:44;;;;;;;13.95;6.88;;;;;;;;;;4932388;29;20038;-55
2023/11/30 06:56:11;;;;;;;14.63;7.82;;;;;;;;;;4931897;29;20415;-54
2023/11/30 06:58:40;;;;;;;16.50;8.70;;;;;;;;;;4931157;29;20051;-54
2023/11/30 07:01:07;;;;;;;16.98;8.80;;;;;;;;;;4929113;29;20059;-55
2023/11/30 07:03:34;;;;;;;15.50;8.02;;;;;;;;;;4932646;29;20039;-54
2023/11/30 07:06:01;;;;;;;15.88;7.82;;;;;;;;;;4931587;29;20495;-54
2023/11/30 07:08:27;;;;;;;14.40;7.05;;;;;;;;;;4931476;29;20474;-56
2023/11/30 07:10:53;;;;;;;14.63;7.40;;;;;;;;;;4930341;29;20048;-56
2023/11/30 07:13:19;;;;;;;16.27;7.63;;;;;;;;;;4930368;29;20046;-56
2023/11/30 07:15:45;;;;;;;14.35;7.20;;;;;;;;;;4931224;29;20044;-56
2023/11/30 07:18:13;;;;;;;14.98;7.38;;;;;;;;;;4931141;29;20472;-56
2023/11/30 07:20:40;;;;;;;14.13;6.95;;;;;;;;;;4931580;29;20031;-56
2023/11/30 07:23:06;;;;;;;16.50;7.88;;;;;;;;;;4931683;29;20401;-54
2023/11/30 07:25:32;;;;;;;14.80;8.00;;;;;;;;;;4931373;29;20054;-56
2023/11/30 07:27:59;;;;;;;13.95;7.20;;;;;;;;;;4931159;29;20496;-57
2023/11/30 07:30:25;;;;;;;13.95;7.10;;;;;;;;;;4929182;29;20135;-54
2023/11/30 07:32:53;;;;;;;16.45;8.02;;;;;;;;;;4930500;29;20506;-55
2023/11/30 07:35:19;;;;;;;16.33;8.52;;;;;;;;;;4929382;28;20043;-56
2023/11/30 07:37:45;;;;;;;18.50;8.65;;;;;;;;;;4935108;29;20042;-56
2023/11/30 07:40:12;;;;;;;14.10;7.20;;;;;;;;;;4929849;29;20039;-56
2023/11/30 07:42:38;;;;;;;13.50;7.70;;;;;;;;;;4931226;29;20051;-56
2023/11/30 07:45:04;;;;;;;14.55;7.60;;;;;;;;;;4928665;29;20052;-55
2023/11/30 07:47:32;;;;;;;15.32;7.72;;;;;;;;;;4927107;29;20051;-57
2023/11/30 07:49:59;;;;;;;13.23;7.15;;;;;;;;;;4928777;29;20427;-56
2023/11/30 07:52:25;;;;;;;14.68;7.82;;;;;;;;;;4931659;29;20043;-56
2023/11/30 07:54:51;;;;;;;14.63;8.00;;;;;;;;;;4929709;29;20044;-56
2023/11/30 07:57:17;;;;;;;15.98;8.38;;;;;;;;;;4926778;29;20044;-56
2023/11/30 07:59:44;;;;;;;13.52;7.22;;;;;;;;;;4930108;29;20063;-56
2023/11/30 08:02:10;;;;;;;13.70;7.07;;;;;;;;;;4930730;29;20055;-56
2023/11/30 08:04:36;;;;;;;14.70;7.75;;;;;;;;;;4929602;29;20471;-55
2023/11/30 08:07:03;;;;;;;13.70;8.15;;;;;;;;;;4929906;29;20066;-55
2023/11/30 08:09:30;;;;;;;14.70;8.40;;;;;;;;;;4929290;29;20059;-56
2023/11/30 08:11:56;;;;;;;14.10;7.10;;;;;;;;;;4930564;29;20536;-56
2023/11/30 08:14:23;;;;;;;14.65;7.65;;;;;;;;;;4931233;29;20043;-55
2023/11/30 08:16:49;;;;;;;10.80;6.43;;;;;;;;;;4929970;29;20047;-56
2023/11/30 08:19:15;;;;;;;13.60;7.35;;;;;;;;;;4932656;29;20050;-55
2023/11/30 08:21:41;;;;;;;13.80;7.00;;;;;;;;;;4933965;29;20057;-57
2023/11/30 08:24:08;;;;;;;12.50;7.35;;;;;;;;;;4932512;29;20058;-57
2023/11/30 08:26:35;;;;;;;14.35;7.20;;;;;;;;;;4932288;29;20046;-57
2023/11/30 08:29:01;;;;;;;12.15;6.18;;;;;;;;;;4929756;29;20060;-57
2023/11/30 08:31:28;;;;;;;10.38;6.00;;;;;;;;;;4932905;29;20408;-57
2023/11/30 08:33:55;;;;;;;12.55;7.05;;;;;;;;;;4933260;29;20047;-57
2023/11/30 08:36:21;;;;;;;12.93;6.88;;;;;;;;;;4932554;29;20559;-56
2023/11/30 08:38:47;;;;;;;12.95;7.18;;;;;;;;;;4933034;29;20035;-56
2023/11/30 08:41:13;;;;;;;12.57;6.15;;;;;;;;;;4932634;29;20056;-56
2023/11/30 08:43:39;;;;;;;12.77;6.80;;;;;;;;;;4933804;29;20048;-54
2023/11/30 08:46:06;;;;;;;11.93;6.28;;;;;;;;;;4931029;29;20035;-56
2023/11/30 08:48:32;;;;;;;11.73;6.10;;;;;;;;;;4933919;29;20058;-54
2023/11/30 08:50:58;;;;;;;11.60;6.05;;;;;;;;;;4932666;29;20353;-54
2023/11/30 08:53:25;;;;;;;12.65;6.63;;;;;;;;;;4933443;29;20062;-55
2023/11/30 08:55:51;;;;;;;10.98;5.82;;;;;;;;;;4933946;29;20059;-56
2023/11/30 08:58:17;;;;;;;11.65;6.30;;;;;;;;;;4932546;29;20054;-56
2023/11/30 09:00:43;;;;;;;14.80;7.70;;;;;;;;;;4927984;29;20035;-55
2023/11/30 09:03:09;;;;;;;18.00;8.13;;;;;;;;;;4930588;29;20173;-54
2023/11/30 09:05:36;;;;;;;16.85;8.05;;;;;;;;;;4933035;29;20058;-54
2023/11/30 09:08:02;;;;;;;14.18;7.10;;;;;;;;;;4926993;29;20048;-55
2023/11/30 09:10:28;;;;;;;20.58;8.32;;;;;;;;;;4928823;29;20054;-58
2023/11/30 09:12:54;;;;;;;21.83;9.65;;;;;;;;;;4924938;29;20035;-58
2023/11/30 09:15:21;;;;;;;14.95;8.00;;;;;;;;;;4929358;29;20543;-54
2023/11/30 09:17:47;;;;;;;13.38;6.50;;;;;;;;;;4928133;29;20056;-55
2023/11/30 09:20:13;;;;;;;12.40;6.72;;;;;;;;;;4927206;29;20048;-55
2023/11/30 09:22:39;;;;;;;11.95;6.25;;;;;;;;;;4929042;29;20050;-54
2023/11/30 09:25:06;;;;;;;12.07;6.65;;;;;;;;;;4933374;29;20047;-54
2023/11/30 09:27:32;;;;;;;11.25;6.05;;;;;;;;;;4932396;29;20135;-56
2023/11/30 09:29:58;;;;;;;11.85;6.35;;;;;;;;;;4933647;29;20055;-54
2023/11/30 09:32:24;;;;;;;11.35;5.97;;;;;;;;;;4933165;29;20494;-55
2023/11/30 09:34:50;;;;;;;12.07;5.60;;;;;;;;;;4929720;29;20039;-54
2023/11/30 09:37:16;;;;;;;11.75;6.10;;;;;;;;;;4932533;29;20059;-56
2023/11/30 09:39:44;;;;;;;12.95;6.78;;;;;;;;;;4933598;29;20038;-55
2023/11/30 09:42:15;;;;;;;12.25;6.75;;;;;;;;;;4932663;29;20051;-55
2023/11/30 09:44:43;;;;;;;11.48;6.20;;;;;;;;;;4933756;29;20038;-56
2023/11/30 09:47:10;;;;;;;12.05;6.20;;;;;;;;;;4931702;29;20427;-57
2023/11/30 09:49:39;;;;;;;11.70;6.07;;;;;;;;;;4932498;29;20052;-55
2023/11/30 09:52:06;;;;;;;10.37;6.00;;;;;;;;;;4933157;29;20043;-53
2023/11/30 09:54:34;;;;;;;9.70;5.25;;;;;;;;;;4930928;29;20171;-55
2023/11/30 09:57:00;;;;;;;8.90;5.15;;;;;;;;;;4930977;29;20063;-55
2023/11/30 09:59:27;;;;;;;10.52;5.75;;;;;;;;;;4932487;29;20048;-56
2023/11/30 10:01:55;;;;;;;11.25;5.50;;;;;;;;;;4933170;29;20403;-56
2023/11/30 10:04:24;;;;;;;11.68;6.43;;;;;;;;;;4932501;29;20051;-56
2023/11/30 10:06:54;;;;;;;13.68;6.32;;;;;;;;;;4931981;29;20459;-56
2023/11/30 10:09:20;;;;;;;;;;;;;;;;;;4933405;29;20043;-56
2023/11/30 10:11:46;;;;;;;10.70;5.53;;;;;;;;;;4933072;29;19918;-56
2023/11/30 10:14:12;;;;;;;11.00;5.80;;;;;;;;;;4932773;29;20043;-57
2023/11/30 10:16:39;;;;;;;10.77;5.22;;;;;;;;;;4931617;29;20450;-57
2023/11/30 10:19:05;;;;;;;11.55;5.65;;;;;;;;;;4932133;29;20048;-57
2023/11/30 10:21:31;;;;;;;9.45;5.53;;;;;;;;;;4933296;29;20043;-57
2023/11/30 10:23:58;;;;;;;9.68;5.10;;;;;;;;;;4931127;29;20032;-59
2023/11/30 10:26:24;;;;;;;10.18;5.93;;;;;;;;;;4931699;29;20085;-60
2023/11/30 10:28:53;;;;;;;11.48;5.63;;;;;;;;;;4932010;29;20052;-60
2023/11/30 10:31:22;;;;;;;9.68;5.22;;;;;;;;;;4931623;29;20071;-61
2023/11/30 10:34:13;;;;;;;9.07;4.82;;;;;;;;;;4932449;29;20055;-58
2023/11/30 10:36:40;;;;;;;7.55;4.80;;;;;;;;;;4928256;29;20415;-57
2023/11/30 10:39:16;;;;;;;7.75;5.13;;;;;;;;;;4927635;29;20031;-57
2023/11/30 10:42:08;;;;;;;9.50;4.82;;;;;;;;;;4928978;29;20027;-56
2023/11/30 10:44:36;;;;;;;10.43;5.43;;;;;;;;;;4928837;29;20043;-57
2023/11/30 10:47:07;;;;;;;11.25;5.30;;;;;;;;;;4927703;29;20044;-57
2023/11/30 10:49:33;;;;;;;8.23;4.68;;;;;;;;;;4927431;29;20128;-57
2023/11/30 10:52:01;;;;;;;9.68;4.75;;;;;;;;;;4928875;29;20058;-57
2023/11/30 10:54:42;;;;;;;8.55;4.30;;;;;;;;;;4927047;29;20036;-56
2023/11/30 10:57:08;;;;;;;6.75;4.10;;;;;;;;;;4927490;29;20043;-56
2023/11/30 10:59:34;;;;;;;6.07;3.83;;;;;;;;;;4928503;29;20034;-56
2023/11/30 11:02:05;;;;;;;9.57;5.22;;;;;;;;;;4923860;29;20036;-56
2023/11/30 11:04:32;;;;;;;6.97;4.28;;;;;;;;;;4927957;29;20040;-56
2023/11/30 11:07:08;;;;;;;8.70;4.13;;;;;;;;;;4924515;29;20068;-58
2023/11/30 11:09:54;;;;;;;9.10;4.63;;;;;;;;;;4928167;29;20047;-56
2023/11/30 11:12:22;;;;;;;7.25;4.50;;;;;;;;;;4933618;29;20368;-57
2023/11/30 11:14:49;;;;;;;8.55;4.53;;;;;;;;;;4934775;29;20055;-56
2023/11/30 11:17:19;;;;;;;6.45;4.15;;;;;;;;;;4929102;29;20051;-56
2023/11/30 11:19:45;;;;;;;6.35;3.63;;;;;;;;;;4929142;29;20526;-56
2023/11/30 11:22:21;;;;;;;10.15;4.20;;;;;;;;;;4930442;29;20062;-56
2023/11/30 11:24:48;;;;;;;6.75;3.60;;;;;;;;;;4933055;29;20044;-56
2023/11/30 11:27:31;;;;;;;7.55;4.15;;;;;;;;;;4928212;29;20376;-56
2023/11/30 11:30:01;;;;;;;7.65;3.88;;;;;;;;;;4933312;29;20052;-57
2023/11/30 11:32:30;;;;;;;7.28;3.88;;;;;;;;;;4932387;29;20090;-57
2023/11/30 11:34:56;;;;;;;7.45;4.10;;;;;;;;;;4931808;29;20070;-57
2023/11/30 11:37:23;;;;;;;6.25;3.75;;;;;;;;;;4928482;29;20050;-55
2023/11/30 11:39:51;;;;;;;9.10;3.95;;;;;;;;;;4931101;29;20076;-56
2023/11/30 11:42:19;;;;;;;7.70;4.40;;;;;;;;;;4931760;29;20392;-55
2023/11/30 11:44:48;;;;;;;5.53;3.37;;;;;;;;;;4929707;29;20048;-56
2023/11/30 11:47:14;;;;;;;5.07;3.70;;;;;;;;;;4927920;29;20767;-56
2023/11/30 11:49:40;;;;;;;6.20;3.67;;;;;;;;;;4927318;29;20043;-56
2023/11/30 11:52:06;;;;;;;10.93;3.80;;;;;;;;;;4934830;29;20054;-56
2023/11/30 11:54:32;;;;;;;6.90;4.18;;;;;;;;;;4934513;29;20035;-56
2023/11/30 11:56:59;;;;;;;6.13;3.60;;;;;;;;;;4934123;29;20047;-56
2023/11/30 11:59:27;;;;;;;6.45;3.50;;;;;;;;;;4935044;29;20056;-54
2023/11/30 12:01:54;;;;;;;6.65;3.95;;;;;;;;;;4934255;29;20044;-56
2023/11/30 12:04:27;;;;;;;5.35;3.10;;;;;;;;;;4934643;29;20051;-57
2023/11/30 12:06:54;;;;;;;4.75;3.30;;;;;;;;;;4932426;29;20054;-56
2023/11/30 12:09:20;;;;;;;6.15;3.30;;;;;;;;;;4934970;29;20039;-57
2023/11/30 12:11:47;;;;;;;6.53;3.28;;;;;;;;;;4934753;29;20044;-57
2023/11/30 12:14:15;;;;;;;5.47;3.00;;;;;;;;;;4933832;29;20512;-58
2023/11/30 12:16:42;;;;;;;5.43;3.17;;;;;;;;;;4932337;29;20039;-57
2023/11/30 12:19:09;;;;;;;12.35;3.85;;;;;;;;;;4932506;29;20431;-57
2023/11/30 12:21:35;;;;;;;6.85;3.22;;;;;;;;;;4932026;29;20051;-57
2023/11/30 12:24:02;;;;;;;6.57;3.80;;;;;;;;;;4932939;29;20063;-56
2023/11/30 12:26:28;;;;;;;6.25;3.13;;;;;;;;;;4931524;29;20058;-57
2023/11/30 12:28:58;;;;;;;6.22;3.00;;;;;;;;;;4933185;29;20127;-58
2023/11/30 12:31:24;;;;;;;;;;;;;;;;;;4934716;29;20048;-58
2023/11/30 12:33:52;;;;;;;5.95;2.53;;;;;;;;;;4934347;29;19921;-58
2023/11/30 12:36:19;;;;;;;4.07;2.80;;;;;;;;;;4934592;29;20038;-57
2023/11/30 12:38:45;;;;;;;5.63;3.08;;;;;;;;;;4933048;29;20060;-57
2023/11/30 12:41:11;;;;;;;3.80;2.33;;;;;;;;;;4933524;29;20411;-57
2023/11/30 12:43:37;;;;;;;4.40;3.00;;;;;;;;;;4933909;29;20048;-57
2023/11/30 12:46:04;;;;;;;9.63;3.40;;;;;;;;;;4927878;29;20044;-55
2023/11/30 12:48:30;;;;;;;5.70;3.42;;;;;;;;;;4929191;29;20048;-57
2023/11/30 12:50:56;;;;;;;4.82;3.20;;;;;;;;;;4930976;29;20396;-56
2023/11/30 12:53:22;;;;;;;10.23;5.68;;;;;;;;;;4928529;29;20051;-56
2023/11/30 12:55:48;;;;;;;6.28;3.70;;;;;;;;;;4927887;29;20419;-56
2023/11/30 12:58:15;;;;;;;14.80;6.35;;;;;;;;;;4927222;29;20048;-55
2023/11/30 13:00:41;;;;;;;12.95;6.05;;;;;;;;;;4933380;29;20035;-57
2023/11/30 13:03:07;;;;;;;12.10;5.45;;;;;;;;;;4930898;29;20048;-57
2023/11/30 13:05:33;;;;;;;6.40;3.60;;;;;;;;;;4928431;29;20723;-57
2023/11/30 13:07:59;;;;;;;6.13;3.60;;;;;;;;;;4926980;29;20062;-56
2023/11/30 13:10:27;;;;;;;7.18;3.80;;;;;;;;;;4927144;29;20043;-56
2023/11/30 13:12:53;;;;;;;6.65;4.25;;;;;;;;;;4926308;29;20454;-55
2023/11/30 13:15:20;;;;;;;5.18;3.58;;;;;;;;;;4928352;29;20052;-56
2023/11/30 13:17:46;;;;;;;5.20;3.00;;;;;;;;;;4925531;29;20044;-56
2023/11/30 13:20:12;;;;;;;5.38;3.40;;;;;;;;;;4925801;29;20725;-57
2023/11/30 13:22:46;;;;;;;4.28;3.13;;;;;;;;;;4928614;29;20039;-56
2023/11/30 13:25:13;;;;;;;5.60;3.08;;;;;;;;;;4931338;29;20514;-57
2023/11/30 13:27:45;;;;;;;4.60;2.92;;;;;;;;;;4930972;29;20039;-57
2023/11/30 13:30:13;;;;;;;4.68;2.80;;;;;;;;;;4925772;29;20142;-57
2023/11/30 13:32:39;;;;;;;6.45;3.20;;;;;;;;;;4926316;29;20075;-56
2023/11/30 13:35:08;;;;;;;5.78;3.03;;;;;;;;;;4928365;29;20052;-57
2023/11/30 13:37:37;;;;;;;5.72;3.13;;;;;;;;;;4932049;29;20040;-57
2023/11/30 13:40:07;;;;;;;4.30;2.67;;;;;;;;;;4932821;29;20119;-57
2023/11/30 13:42:33;;;;;;;5.70;3.00;;;;;;;;;;4928325;29;20039;-56
2023/11/30 13:45:01;;;;;;;5.10;2.60;;;;;;;;;;4932562;29;20042;-56
2023/11/30 13:47:28;;;;;;;6.45;3.17;;;;;;;;;;4930126;29;20055;-56
2023/11/30 13:49:55;;;;;;;5.75;3.80;;;;;;;;;;4931447;29;20056;-56
2023/11/30 13:52:21;;;;;;;6.40;4.00;;;;;;;;;;4932603;29;20055;-56
2023/11/30 13:54:48;;;;;;;6.00;3.85;;;;;;;;;;4933570;29;20058;-56
2023/11/30 13:57:14;;;;;;;6.22;3.53;;;;;;;;;;4931771;29;20055;-56
2023/11/30 13:59:41;;;;;;;6.57;3.55;;;;;;;;;;4933491;29;20039;-55
2023/11/30 14:02:07;;;;;;;6.70;3.80;;;;;;;;;;4932374;29;20503;-56
2023/11/30 14:04:33;;;;;;;5.60;3.25;;;;;;;;;;4932649;29;20059;-57
2023/11/30 14:07:00;;;;;;;5.05;3.10;;;;;;;;;;4931895;29;20043;-56
2023/11/30 14:09:26;;;;;;;6.32;3.50;;;;;;;;;;4932704;29;20115;-56
2023/11/30 14:11:56;;;;;;;15.05;4.97;;;;;;;;;;4932760;29;20051;-56
2023/11/30 14:14:22;;;;;;;6.55;3.80;;;;;;;;;;4932459;29;20058;-55
2023/11/30 14:16:48;;;;;;;7.20;4.18;;;;;;;;;;4932059;29;20043;-57
2023/11/30 14:19:16;;;;;;;5.85;3.67;;;;;;;;;;4932282;29;20422;-55
2023/11/30 14:21:42;;;;;;;7.78;3.63;;;;;;;;;;4932358;29;20456;-56
2023/11/30 14:24:08;;;;;;;4.93;3.05;;;;;;;;;;4932352;29;20058;-55
2023/11/30 14:26:35;;;;;;;4.35;3.05;;;;;;;;;;4931483;29;20043;-56
2023/11/30 14:29:02;;;;;;;5.97;3.22;;;;;;;;;;4932315;29;20055;-57
2023/11/30 14:31:28;;;;;;;6.93;3.40;;;;;;;;;;4932000;29;20043;-56
2023/11/30 14:33:55;;;;;;;4.70;3.28;;;;;;;;;;4932070;29;20047;-56